Aérodrome :
LOGIN :

S'inscrire | Disclaimer

   EN    FR    IT 

 










Légende :    VFR   VFR Marginal   IFR   IFR Intensif   IFR Très Intensif
Visi : 
Plafond : 
>= 8 km
>= 3000ft
5 à 8 km
1000 à 3000 ft
1500m à 5 km
500 à 1000 ft
800 à 1500m
200 à 500 ft
< 800m
< 200 ft
Symboles :   Orages  Brouillard  Fortes neiges  Fortes précipitations  Vent > 20 kt
SIGMETs :   Divers  Orages  Givrage  Turbulence  Onde Orograph.  Cendres Volcan.







- Altitude de l'aérodrome : 1411 ft
- Code IATA : SZG


LOWS - Salzburg

DERNIER METAR :
  • 281720Z 33005KT CAVOK 16/03 Q1022 NOSIG

METARs EXPIRÉS :
  • 281650Z 34007KT CAVOK 17/04 Q1022 NOSIG
  • 281620Z 32008KT CAVOK 18/02 Q1022 NOSIG
  • 281550Z 31009KT 280V340 9999 FEW060 18/02 Q1022 NOSIG
  • 281520Z 31010KT 280V350 9999 FEW060 19/02 Q1022 NOSIG
  • 281450Z 33008KT 9999 FEW060 19/05 Q1022 NOSIG

TAF TAF LOWS
Valide du 28 à 18h jusqu'au 29 à 18h UTC


281715Z 2818/2918 15005KT CAVOK TX16/2915Z TN06/2903Z
BECMG 2902/2904 9999 SCT050 BKN120
BECMG 2907/2909 32007KT
TEMPO 2908/2914 29012KT -SHRA SCT050 BKN070
BECMG 2916/2918 15005KT
Pas de NOTAMs connus pour ce terrain.



MET'MAP, la Météo Aéronautique d'un coup d'oeil ! - Copyright ORBIFLY Décembre 2007 - Disclaimer

ORBIFLY MET'MAP TEAM :

Programmation & Développement : Alexandra Zaïnal
Conception & Développement : Baudouin d'Aumeries
Co-Programmation & Développement : Marc-Olivier Méhu
Soutien technique & logistique : Manuel Goepfert

Contact : metmap@orbifly.com




SOURCES & CREDITS :

   NOAA